Time;durP1;ratioP1;P1;durP2;ratioP2;P2;SDS_P1;SDS_P2;PMS_P1;PMS_P2;Temp;Humidity;BMP_temperature;BMP_pressure;BME280_temperature;BME280_humidity;BME280_pressure;Samples;Min_cycle;Max_cycle;Signal;HPM_P1;HPM_P2
2021/01/19 00:01:35;;;;;;;6.35;2.83;;;;;;;0.79;80.22;99460.53;5013354;28;20034;-70
2021/01/19 00:04:01;;;;;;;6.18;2.33;;;;;;;0.79;79.86;99471.19;5000617;28;20735;-70
2021/01/19 00:06:26;;;;;;;7.03;2.50;;;;;;;0.77;80.22;99473.97;5014313;28;20152;-70
2021/01/19 00:08:51;;;;;;;4.82;2.58;;;;;;;0.71;80.03;99455.81;5014581;28;20045;-70
2021/01/19 00:11:17;;;;;;;7.13;2.75;;;;;;;0.81;79.82;99462.09;5014878;28;20025;-70
2021/01/19 00:13:42;;;;;;;10.18;2.83;;;;;;;0.78;79.87;99458.81;5014567;28;20453;-70
2021/01/19 00:16:07;;;;;;;8.65;2.80;;;;;;;0.81;79.22;99458.56;5011889;28;20025;-70
2021/01/19 00:18:32;;;;;;;9.68;2.75;;;;;;;0.86;79.63;99473.22;5006087;28;20034;-70
2021/01/19 00:20:58;;;;;;;6.10;2.78;;;;;;;0.90;79.35;99462.31;5012532;28;20029;-70
2021/01/19 00:23:23;;;;;;;7.55;2.70;;;;;;;0.90;79.20;99462.31;5013963;28;20030;-70
2021/01/19 00:25:48;;;;;;;9.43;2.97;;;;;;;0.87;79.12;99463.41;5002811;28;20045;-70
2021/01/19 00:28:14;;;;;;;6.78;2.47;;;;;;;0.88;79.08;99455.28;5010854;28;20065;-70
2021/01/19 00:30:40;;;;;;;8.27;2.60;;;;;;;0.88;79.29;99454.44;5010984;28;20036;-70
2021/01/19 00:33:07;;;;;;;7.38;2.75;;;;;;;0.89;79.45;99456.13;5014038;28;20483;-70
2021/01/19 00:35:32;;;;;;;5.47;2.08;;;;;;;0.84;79.34;99447.69;5013258;28;20026;-70
2021/01/19 00:37:59;;;;;;;5.13;2.60;;;;;;;0.84;79.74;99461.00;5010868;28;20053;-70
2021/01/19 00:40:26;;;;;;;7.25;2.85;;;;;;;0.83;79.83;99461.94;5014673;28;20034;-70
2021/01/19 00:42:52;;;;;;;5.35;2.10;;;;;;;0.72;79.77;99438.03;4995379;28;20023;-70
2021/01/19 00:45:17;;;;;;;4.35;2.08;;;;;;;0.75;79.06;99448.41;5009808;28;20087;-70
2021/01/19 00:47:43;;;;;;;4.78;2.30;;;;;;;0.86;79.21;99459.03;5006797;28;20033;-70
2021/01/19 00:50:09;;;;;;;3.15;1.75;;;;;;;0.83;79.38;99454.81;5009373;28;20387;-70
2021/01/19 00:52:34;;;;;;;6.35;2.10;;;;;;;0.82;79.18;99442.47;5012836;28;20026;-70
2021/01/19 00:54:59;;;;;;;5.07;2.17;;;;;;;0.80;79.26;99435.56;5014830;28;20033;-70
2021/01/19 00:57:24;;;;;;;9.18;2.20;;;;;;;0.86;78.73;99432.41;5014544;28;20403;-70
2021/01/19 00:59:49;;;;;;;4.90;1.80;;;;;;;0.89;78.74;99429.47;5012231;28;20079;-70
2021/01/19 01:02:17;;;;;;;3.03;2.13;;;;;;;0.85;79.00;99439.53;5011727;28;20033;-70
2021/01/19 01:04:42;;;;;;;4.95;1.98;;;;;;;0.79;79.02;99423.25;5003112;28;20030;-70
2021/01/19 01:07:08;;;;;;;3.97;1.92;;;;;;;0.73;78.87;99419.22;5003876;28;20502;-70
2021/01/19 01:09:37;;;;;;;8.25;2.10;;;;;;;0.80;78.46;99430.25;5013442;28;20026;-70
2021/01/19 01:12:03;;;;;;;8.65;2.10;;;;;;;0.76;78.45;99431.44;5009536;28;20022;-70
2021/01/19 01:14:28;;;;;;;7.07;2.17;;;;;;;0.76;78.48;99416.34;5013175;28;20045;-70
2021/01/19 01:16:54;;;;;;;4.57;2.13;;;;;;;0.76;79.02;99423.47;5011550;28;20014;-70
2021/01/19 01:19:19;;;;;;;4.90;1.90;;;;;;;0.72;79.35;99424.69;5012694;28;20037;-70
2021/01/19 01:21:44;;;;;;;4.78;2.13;;;;;;;0.76;79.05;99419.00;5009253;28;20044;-70
2021/01/19 01:24:10;;;;;;;3.88;2.00;;;;;;;0.71;78.99;99433.66;5009230;28;20034;-70
2021/01/19 01:26:36;;;;;;;5.75;2.30;;;;;;;0.63;78.78;99424.50;5009043;28;20479;-70
2021/01/19 01:29:02;;;;;;;4.57;2.20;;;;;;;0.69;78.96;99422.28;5013145;28;20030;-70
2021/01/19 01:31:27;;;;;;;4.75;2.15;;;;;;;0.75;78.71;99435.09;5011726;28;20021;-70
2021/01/19 01:33:53;;;;;;;7.63;2.25;;;;;;;0.72;78.95;99427.38;5011522;28;20026;-70
2021/01/19 01:36:18;;;;;;;6.85;2.42;;;;;;;0.69;78.96;99427.63;5012432;28;20106;-70
2021/01/19 01:38:43;;;;;;;4.72;2.45;;;;;;;0.68;79.15;99421.44;5011858;28;20053;-70
2021/01/19 01:41:20;;;;;;;7.43;2.75;;;;;;;0.65;79.28;99421.69;5013493;28;20443;-70
2021/01/19 01:43:46;;;;;;;5.70;2.13;;;;;;;0.53;79.29;99414.72;5013333;28;20435;-71
2021/01/19 01:46:13;;;;;;;5.85;2.33;;;;;;;0.58;79.45;99410.69;5012474;28;20029;-70
2021/01/19 01:48:41;;;;;;;6.90;2.33;;;;;;;0.59;79.47;99417.69;5006172;28;20518;-70
2021/01/19 01:51:10;;;;;;;5.40;2.10;;;;;;;0.64;78.85;99420.84;5008516;28;20117;-70
2021/01/19 01:53:42;;;;;;;7.15;2.30;;;;;;;0.59;79.97;99406.22;5011290;28;20471;-70
2021/01/19 01:56:09;;;;;;;4.75;2.17;;;;;;;0.51;79.64;99398.00;5012733;28;20038;-70
2021/01/19 01:58:36;;;;;;;3.85;1.85;;;;;;;0.44;79.90;99395.00;5005575;28;20029;-70
2021/01/19 02:01:05;;;;;;;5.95;2.28;;;;;;;0.38;79.65;99387.50;4994180;28;20042;-70
2021/01/19 02:03:30;;;;;;;4.82;2.05;;;;;;;0.33;79.67;99368.41;5006715;28;20026;-70
2021/01/19 02:05:56;;;;;;;6.95;2.78;;;;;;;0.28;79.87;99374.09;4996371;28;20031;-70
2021/01/19 02:08:40;;;;;;;7.88;2.50;;;;;;;0.22;80.57;99370.13;5008804;28;20057;-70
2021/01/19 02:11:29;;;;;;;3.70;1.70;;;;;;;0.20;80.28;99379.19;5004576;28;20036;-70
2021/01/19 02:14:05;;;;;;;6.90;2.17;;;;;;;0.17;80.74;99376.78;5015203;28;20065;-71
2021/01/19 02:16:30;;;;;;;4.40;2.20;;;;;;;0.17;80.63;99371.47;5027947;28;20033;-73
2021/01/19 02:19:21;;;;;;;10.13;2.70;;;;;;;0.12;80.61;99360.34;5031819;28;20010;-71
2021/01/19 02:22:09;;;;;;;3.40;2.17;;;;;;;0.03;80.97;99345.97;5034566;28;20024;-71
2021/01/19 02:25:01;;;;;;;4.93;2.23;;;;;;;0.00;80.97;99348.88;5023542;28;20061;-70
2021/01/19 02:27:51;;;;;;;3.78;2.20;;;;;;;-0.06;80.83;99331.56;5034088;28;20033;-70
2021/01/19 02:30:40;;;;;;;6.97;2.53;;;;;;;-0.24;81.61;99327.72;5031862;28;20042;-71
2021/01/19 02:33:30;;;;;;;7.45;3.38;;;;;;;-0.19;81.76;99338.00;5020920;28;20039;-70
2021/01/19 02:36:04;;;;;;;8.30;2.80;;;;;;;-0.17;80.78;99331.59;5021652;28;20042;-70
2021/01/19 02:38:36;;;;;;;5.10;2.58;;;;;;;-0.12;81.42;99347.19;5014215;28;20049;-71
2021/01/19 02:41:03;;;;;;;5.03;2.75;;;;;;;-0.10;81.03;99342.59;5012688;28;20491;-70
2021/01/19 02:43:30;;;;;;;6.97;2.50;;;;;;;-0.08;80.92;99343.31;5012612;28;20391;-71
2021/01/19 02:45:56;;;;;;;3.85;1.95;;;;;;;-0.06;80.34;99330.72;5016640;28;20025;-70
2021/01/19 02:48:23;;;;;;;6.57;2.42;;;;;;;-0.03;80.39;99328.69;5016840;28;20090;-70
2021/01/19 02:50:49;;;;;;;4.97;2.17;;;;;;;-0.06;80.33;99317.44;5016725;28;20045;-70
2021/01/19 02:53:16;;;;;;;4.80;1.67;;;;;;;0.01;80.06;99331.09;5013696;28;20030;-70
2021/01/19 02:55:43;;;;;;;5.40;1.92;;;;;;;0.04;80.19;99339.66;5016515;28;20053;-70
2021/01/19 02:58:20;;;;;;;5.82;2.15;;;;;;;0.06;79.92;99331.56;5017182;28;20038;-70
2021/01/19 03:01:05;;;;;;;4.35;2.08;;;;;;;0.17;79.39;99344.84;5013868;28;20033;-71
2021/01/19 03:03:35;;;;;;;4.35;1.88;;;;;;;0.24;79.27;99343.38;5013531;28;20076;-70
2021/01/19 03:06:03;;;;;;;5.88;1.88;;;;;;;0.38;78.59;99339.59;5035150;28;20037;-71
2021/01/19 03:08:32;;;;;;;5.72;2.03;;;;;;;0.32;78.89;99329.47;5036714;28;20026;-71
2021/01/19 03:10:59;;;;;;;5.68;2.00;;;;;;;0.28;78.97;99312.88;5019217;28;20014;-71
2021/01/19 03:13:25;;;;;;;6.88;1.80;;;;;;;0.21;79.18;99301.91;5034478;28;20044;-71
2021/01/19 03:16:04;;;;;;;5.45;1.85;;;;;;;0.19;79.47;99309.16;5020037;28;20018;-70
2021/01/19 03:18:29;;;;;;;5.30;2.00;;;;;;;0.11;79.10;99300.97;5035163;28;20077;-70
2021/01/19 03:20:54;;;;;;;8.73;2.30;;;;;;;0.17;79.14;99311.09;5033739;28;20507;-72
2021/01/19 03:23:20;;;;;;;3.67;1.52;;;;;;;0.16;78.86;99305.91;5030974;28;20021;-70
2021/01/19 03:25:45;;;;;;;4.63;1.75;;;;;;;0.16;78.96;99297.94;5029645;28;20031;-71
2021/01/19 03:28:10;;;;;;;3.97;1.73;;;;;;;0.12;79.12;99321.28;5024037;28;20056;-70
2021/01/19 03:30:36;;;;;;;7.10;1.63;;;;;;;0.11;78.74;99308.94;5038454;28;20022;-70
2021/01/19 03:33:01;;;;;;;5.57;1.85;;;;;;;0.17;78.68;99316.41;5035731;28;20025;-70
2021/01/19 03:35:26;;;;;;;5.00;1.55;;;;;;;0.08;78.81;99285.25;5027660;28;20037;-72
2021/01/19 03:37:51;;;;;;;5.55;1.92;;;;;;;0.19;78.83;99305.66;5030653;28;20026;-70
2021/01/19 03:40:17;;;;;;;3.80;1.95;;;;;;;0.32;78.32;99308.19;5017356;28;20031;-70
2021/01/19 03:42:42;;;;;;;6.40;1.83;;;;;;;0.31;78.45;99314.44;5027324;28;20056;-70
2021/01/19 03:45:08;;;;;;;4.88;1.65;;;;;;;0.29;78.64;99313.72;5006172;28;20030;-70
2021/01/19 03:47:34;;;;;;;4.70;1.60;;;;;;;0.22;78.77;99292.09;5004907;28;20117;-70
2021/01/19 03:49:59;;;;;;;3.50;1.95;;;;;;;0.22;78.58;99292.09;5005303;28;20045;-70
2021/01/19 03:52:25;;;;;;;3.22;1.67;;;;;;;0.17;78.63;99288.97;5029529;28;20095;-70
2021/01/19 03:54:50;;;;;;;3.92;1.90;;;;;;;0.15;79.14;99280.28;5014710;28;20404;-70
2021/01/19 03:57:15;;;;;;;5.68;1.88;;;;;;;0.08;79.25;99274.63;5014374;28;20022;-70
2021/01/19 03:59:40;;;;;;;3.63;1.38;;;;;;;0.14;79.16;99282.09;5014185;28;20365;-70
2021/01/19 04:02:06;;;;;;;4.38;2.00;;;;;;;0.17;79.54;99284.50;5014129;28;20033;-70
2021/01/19 04:04:31;;;;;;;4.95;1.70;;;;;;;0.11;79.26;99279.69;5013574;28;20480;-71
2021/01/19 04:06:56;;;;;;;4.03;2.10;;;;;;;0.09;79.26;99255.00;5014692;28;20107;-70
2021/01/19 04:09:22;;;;;;;5.57;2.20;;;;;;;0.15;79.52;99261.66;5006773;28;20029;-70
2021/01/19 04:11:47;;;;;;;6.70;1.65;;;;;;;0.16;79.30;99256.22;5020096;28;20511;-70
2021/01/19 04:14:12;;;;;;;10.90;2.00;;;;;;;0.20;79.13;99257.63;5013011;28;20116;-70
2021/01/19 04:16:38;;;;;;;3.20;1.60;;;;;;;0.21;78.42;99251.34;5011406;28;20094;-70
2021/01/19 04:19:03;;;;;;;3.38;1.58;;;;;;;0.22;79.04;99234.41;5012773;28;20056;-70
2021/01/19 04:21:29;;;;;;;3.28;1.65;;;;;;;0.33;78.45;99245.97;5015127;28;20533;-70
2021/01/19 04:23:54;;;;;;;5.50;1.48;;;;;;;0.28;78.77;99248.19;5014448;28;20029;-70
2021/01/19 04:26:20;;;;;;;3.70;1.95;;;;;;;0.29;78.36;99236.53;5014241;28;20522;-70
2021/01/19 04:28:45;;;;;;;4.88;1.85;;;;;;;0.22;77.88;99233.56;5013860;28;20407;-70
2021/01/19 04:31:11;;;;;;;3.63;1.45;;;;;;;0.25;77.93;99227.16;5001251;28;20480;-70
2021/01/19 04:33:36;;;;;;;6.13;2.00;;;;;;;0.34;78.19;99237.00;5012319;28;20108;-70
2021/01/19 04:36:01;;;;;;;3.97;1.63;;;;;;;0.29;77.34;99223.25;5014531;28;20486;-70
2021/01/19 04:38:26;;;;;;;4.88;1.80;;;;;;;0.35;77.53;99236.91;5014234;28;20041;-70
2021/01/19 04:40:52;;;;;;;5.60;1.45;;;;;;;0.34;78.04;99221.03;5009234;28;20430;-70
2021/01/19 04:43:17;;;;;;;3.92;1.83;;;;;;;0.32;77.56;99207.03;4999885;28;20033;-70
2021/01/19 04:45:43;;;;;;;2.67;1.50;;;;;;;0.29;77.29;99212.59;5007209;28;20045;-70
2021/01/19 04:48:09;;;;;;;4.43;1.60;;;;;;;0.15;77.67;99180.00;5004415;28;20400;-70
2021/01/19 04:50:36;;;;;;;3.00;1.63;;;;;;;0.32;77.86;99217.69;5009374;28;20030;-70
2021/01/19 04:53:02;;;;;;;6.28;1.95;;;;;;;0.27;77.90;99198.59;5010091;28;20045;-70
2021/01/19 04:55:28;;;;;;;3.10;1.88;;;;;;;0.38;77.66;99211.84;4995530;28;20041;-69
2021/01/19 04:57:59;;;;;;;2.22;1.60;;;;;;;0.35;77.72;99212.09;5009725;28;20033;-72
2021/01/19 05:00:32;;;;;;;6.43;1.60;;;;;;;0.33;77.31;99212.22;5003619;28;20034;-71
2021/01/19 05:03:30;;;;;;;3.78;1.70;;;;;;;0.22;77.45;99164.38;5006826;28;20040;-71
2021/01/19 05:05:56;;;;;;;3.78;1.45;;;;;;;0.41;77.31;99195.59;5005711;28;20046;-77
2021/01/19 05:08:26;;;;;;;2.80;1.60;;;;;;;0.36;76.93;99180.03;5004442;28;20611;-75
2021/01/19 05:11:01;;;;;;;10.00;1.88;;;;;;;0.36;77.52;99189.81;5011552;28;20442;-72
2021/01/19 05:13:54;;;;;;;3.10;1.98;;;;;;;0.38;77.35;99191.38;4996620;28;20029;-73
2021/01/19 05:16:31;;;;;;;5.82;1.90;;;;;;;0.31;77.21;99158.28;5005900;28;20403;-76
2021/01/19 05:18:57;;;;;;;2.83;1.70;;;;;;;0.31;77.57;99168.91;5012666;28;20025;-77
2021/01/19 05:21:23;;;;;;;5.38;1.85;;;;;;;0.35;77.02;99164.19;5007964;28;20396;-76
2021/01/19 05:23:48;;;;;;;5.32;1.50;;;;;;;0.36;77.34;99165.88;5009473;28;20022;-75
2021/01/19 05:26:16;;;;;;;4.30;1.88;;;;;;;0.24;77.16;99145.63;4998039;28;20033;-75
2021/01/19 05:28:47;;;;;;;4.15;1.80;;;;;;;0.40;77.02;99162.00;4992881;28;20037;-71
2021/01/19 05:31:15;;;;;;;4.45;1.90;;;;;;;0.34;77.22;99149.19;4997690;28;20030;-71
2021/01/19 05:33:52;;;;;;;10.20;1.98;;;;;;;0.31;77.00;99152.94;5008103;28;20192;-69
2021/01/19 05:36:38;;;;;;;4.78;1.70;;;;;;;0.23;76.86;99131.47;5008375;28;20014;-71
2021/01/19 05:39:06;;;;;;;2.42;1.70;;;;;;;0.22;77.42;99140.44;4993734;28;20026;-75
2021/01/19 05:41:43;;;;;;;5.25;1.85;;;;;;;0.12;77.42;99142.19;5013388;28;20026;-77
2021/01/19 05:44:13;;;;;;;4.75;1.67;;;;;;;0.14;77.36;99151.72;5021019;28;20498;-74
2021/01/19 05:47:10;;;;;;;7.50;1.80;;;;;;;0.12;77.64;99127.06;5016579;28;20498;-75
2021/01/19 05:49:41;;;;;;;4.18;1.70;;;;;;;0.14;77.49;99141.09;5010415;28;20105;-72
2021/01/19 05:52:11;;;;;;;4.80;1.70;;;;;;;-0.09;77.35;99096.94;5011567;28;20030;-77
2021/01/19 05:54:40;;;;;;;3.25;1.30;;;;;;;0.19;77.28;99128.25;5009233;28;20125;-73
2021/01/19 05:57:07;;;;;;;4.53;1.50;;;;;;;0.21;77.16;99128.97;4998839;28;20032;-75
2021/01/19 05:59:38;;;;;;;3.95;1.90;;;;;;;0.18;76.65;99121.25;4998712;28;20034;-75
2021/01/19 06:02:10;;;;;;;5.05;1.40;;;;;;;0.13;77.27;99118.13;5012634;28;20036;-78
2021/01/19 06:04:42;;;;;;;3.70;1.80;;;;;;;0.10;77.54;99114.84;5013157;28;20471;-74
2021/01/19 06:07:09;;;;;;;4.30;1.75;;;;;;;0.09;77.41;99116.69;5012182;28;20056;-75
2021/01/19 06:09:35;;;;;;;2.53;1.70;;;;;;;0.05;77.58;99115.22;5001079;28;20049;-77
2021/01/19 06:12:01;;;;;;;3.38;1.58;;;;;;;-0.51;77.91;99033.94;5012581;28;20701;-74
2021/01/19 06:14:28;;;;;;;4.70;1.90;;;;;;;-0.03;77.69;99102.59;5011449;28;20112;-74
2021/01/19 06:17:10;;;;;;;4.18;1.50;;;;;;;-0.10;77.85;99095.28;5002990;28;20484;-73
2021/01/19 06:19:37;;;;;;;6.15;1.90;;;;;;;-0.09;78.07;99092.47;5002533;28;20053;-71
2021/01/19 06:22:07;;;;;;;2.80;1.52;;;;;;;-0.19;78.32;99093.38;4999026;28;20026;-76
2021/01/19 06:24:44;;;;;;;5.97;1.80;;;;;;;-0.23;78.08;99098.09;5003396;28;20057;-70
2021/01/19 06:27:12;;;;;;;2.92;1.63;;;;;;;-0.23;78.17;99095.44;5015447;28;20030;-72
2021/01/19 06:29:38;;;;;;;3.50;1.80;;;;;;;-0.24;78.12;99097.28;5015493;28;20022;-71
2021/01/19 06:32:05;;;;;;;4.38;1.80;;;;;;;-0.15;78.26;99110.75;5013297;28;20657;-72
2021/01/19 06:34:37;;;;;;;6.07;1.88;;;;;;;-0.25;78.25;99098.22;5017895;28;20022;-75
2021/01/19 06:37:04;;;;;;;5.30;2.13;;;;;;;-0.19;78.38;99102.19;5043315;28;20041;-77
2021/01/19 06:39:33;;;;;;;2.20;1.45;;;;;;;-0.20;77.97;99104.97;5024174;28;20509;-76
2021/01/19 06:42:13;;;;;;;2.93;1.87;;;;;;;-0.29;78.19;99070.22;5038451;28;20017;-77
2021/01/19 06:44:41;;;;;;;4.55;1.92;;;;;;;-0.27;77.94;99060.28;5033145;28;20026;-66
2021/01/19 06:47:08;;;;;;;6.85;2.40;;;;;;;-0.19;78.16;99080.06;5020192;28;20035;-71
2021/01/19 06:49:38;;;;;;;7.80;1.80;;;;;;;-0.13;77.72;99069.78;5025585;28;20009;-70
2021/01/19 06:52:09;;;;;;;6.60;1.90;;;;;;;-0.11;77.91;99066.97;5033557;28;20031;-75
2021/01/19 06:55:18;;;;;;;3.50;2.08;;;;;;;-0.05;77.87;99077.13;5014931;28;20027;-70
2021/01/19 06:58:09;;;;;;;4.68;1.90;;;;;;;-0.18;77.45;99055.16;5018964;28;20041;-77
2021/01/19 07:00:41;;;;;;;3.25;1.65;;;;;;;-0.06;77.13;99056.78;5023870;28;20057;-73
2021/01/19 07:03:22;;;;;;;6.15;2.03;;;;;;;0.01;77.11;99060.63;5035659;28;20041;-70
2021/01/19 07:05:52;;;;;;;6.10;1.65;;;;;;;-0.03;77.06;99053.88;5051612;28;20060;-75
2021/01/19 07:08:20;;;;;;;7.55;2.20;;;;;;;0.01;77.04;99063.28;5029892;28;20018;-70
2021/01/19 07:11:27;;;;;;;6.70;2.03;;;;;;;-0.12;77.23;99046.69;5023697;28;20015;-69
2021/01/19 07:14:24;;;;;;;6.60;2.10;;;;;;;-0.07;77.05;99055.94;5017809;28;20034;-67
2021/01/19 07:16:55;;;;;;;8.32;2.10;;;;;;;-0.05;77.03;99048.69;5028566;28;20042;-67
2021/01/19 07:19:39;;;;;;;7.57;1.95;;;;;;;-0.04;77.12;99047.72;5019378;28;20046;-68
2021/01/19 07:22:08;;;;;;;7.57;2.33;;;;;;;-0.10;77.20;99039.44;5026005;28;20014;-67
2021/01/19 07:24:37;;;;;;;;;;;;;;;-0.20;77.22;99052.66;5037276;28;20025;-74
2021/01/19 07:27:04;;;;;;;5.88;2.47;;;;;;;-0.31;77.75;99034.94;5035598;28;19910;-70
2021/01/19 07:29:29;;;;;;;3.78;1.88;;;;;;;-0.23;77.50;99023.66;5026184;28;20030;-67
2021/01/19 07:32:07;;;;;;;6.13;2.10;;;;;;;-0.32;77.57;99027.91;5032736;28;20049;-70
2021/01/19 07:34:33;;;;;;;6.45;2.17;;;;;;;-0.40;77.32;99024.22;5037098;28;20029;-71
2021/01/19 07:36:58;;;;;;;3.13;1.90;;;;;;;-0.35;77.73;99030.84;5025190;28;20013;-75
2021/01/19 07:39:23;;;;;;;5.95;2.17;;;;;;;-0.36;77.37;99023.84;5036771;28;20033;-72
2021/01/19 07:41:49;;;;;;;6.60;2.58;;;;;;;-0.34;77.47;99019.25;5037450;28;20013;-79
2021/01/19 07:44:22;;;;;;;3.50;1.90;;;;;;;-0.24;77.46;99014.84;5039467;28;20041;-74
2021/01/19 07:46:48;;;;;;;12.18;3.15;;;;;;;-0.09;76.87;99022.47;5030665;28;20095;-77
2021/01/19 07:49:14;;;;;;;4.28;2.65;;;;;;;-0.17;76.67;99006.34;5039671;28;20010;-74
2021/01/19 07:51:46;;;;;;;8.85;2.40;;;;;;;-0.01;76.93;99022.66;5033898;28;20102;-77
2021/01/19 07:54:13;;;;;;;9.02;2.35;;;;;;;-0.13;76.59;99000.63;5039759;28;20025;-73
2021/01/19 07:56:40;;;;;;;9.40;2.47;;;;;;;-0.05;76.13;99006.13;5038015;28;20101;-76
2021/01/19 07:59:24;;;;;;;4.47;2.53;;;;;;;0.01;76.26;99018.06;5034742;28;20049;-69
2021/01/19 08:01:57;;;;;;;5.32;1.92;;;;;;;-0.01;76.45;99009.38;5024541;28;20026;-70
2021/01/19 08:04:31;;;;;;;9.63;2.80;;;;;;;-0.15;76.47;98988.44;5019398;28;20078;-71
2021/01/19 08:06:57;;;;;;;7.75;2.28;;;;;;;-0.09;76.48;99009.19;5021966;28;20027;-69
2021/01/19 08:09:23;;;;;;;4.60;2.50;;;;;;;0.04;76.51;98998.34;5040690;28;20014;-69
2021/01/19 08:12:06;;;;;;;5.15;1.90;;;;;;;0.08;76.23;98997.97;5036967;28;20060;-69
2021/01/19 08:14:36;;;;;;;4.65;2.50;;;;;;;0.27;75.93;98991.03;5027082;28;20006;-70
2021/01/19 08:17:06;;;;;;;7.80;2.33;;;;;;;0.37;75.24;98986.59;5033594;28;20154;-69
2021/01/19 08:19:38;;;;;;;;;;;;;;;0.51;74.77;98988.88;5031454;28;20037;-74
2021/01/19 08:22:04;;;;;;;11.18;3.92;;;;;;;0.86;73.55;98984.91;5028790;28;19913;-74
2021/01/19 08:24:29;;;;;;;6.32;3.25;;;;;;;1.48;72.01;98956.19;5015415;28;20088;-72
2021/01/19 08:26:56;;;;;;;5.88;2.13;;;;;;;1.93;69.61;98942.22;5014887;28;20056;-71
2021/01/19 08:29:22;;;;;;;7.05;2.95;;;;;;;2.06;69.70;98952.56;5003424;28;20026;-72
2021/01/19 08:31:59;;;;;;;9.60;3.72;;;;;;;1.80;70.40;98947.84;5014650;28;20498;-73
2021/01/19 08:34:26;;;;;;;7.05;2.67;;;;;;;2.36;68.85;98954.16;5011718;28;20022;-71
2021/01/19 08:36:53;;;;;;;7.82;2.80;;;;;;;2.65;67.82;98956.69;5001635;28;20108;-72
2021/01/19 08:39:18;;;;;;;5.05;2.50;;;;;;;3.16;66.12;98923.13;5004171;28;20030;-72
2021/01/19 08:41:52;;;;;;;7.93;2.08;;;;;;;3.61;64.85;98938.19;5010493;28;20434;-69
2021/01/19 08:44:18;;;;;;;5.25;2.47;;;;;;;4.39;62.47;98942.69;4996895;28;20061;-70
2021/01/19 08:46:44;;;;;;;9.75;3.20;;;;;;;5.13;59.95;98940.25;5006662;28;20634;-76
2021/01/19 08:49:12;;;;;;;8.40;2.90;;;;;;;6.27;57.31;98944.75;5014706;28;20060;-80
2021/01/19 08:51:41;;;;;;;6.07;2.30;;;;;;;5.96;57.51;98905.22;5021954;28;20025;-79
2021/01/19 08:54:09;;;;;;;6.05;2.20;;;;;;;5.17;58.83;98914.78;5022525;28;20117;-80
2021/01/19 08:56:45;;;;;;;6.47;2.22;;;;;;;4.31;62.09;98935.47;5029575;28;20036;-81
2021/01/19 08:59:15;;;;;;;6.00;2.40;;;;;;;3.70;63.28;98921.22;5030124;28;20029;-82
2021/01/19 09:01:50;;;;;;;11.80;2.42;;;;;;;3.37;64.58;98922.81;5022422;28;20089;-78
2021/01/19 09:04:23;;;;;;;5.55;2.17;;;;;;;3.50;65.19;98938.47;5023881;28;20026;-86
2021/01/19 09:06:50;;;;;;;4.35;2.10;;;;;;;3.40;65.38;98924.34;5030995;28;20106;-81
2021/01/19 09:09:22;;;;;;;5.32;2.00;;;;;;;3.06;66.29;98941.91;5006769;28;20030;-76
2021/01/19 09:11:47;;;;;;;6.85;2.40;;;;;;;2.71;67.18;98936.53;5014028;28;20040;-77
2021/01/19 09:14:13;;;;;;;7.28;2.78;;;;;;;2.47;67.60;98947.78;5033155;28;20033;-71
2021/01/19 09:16:39;;;;;;;10.55;2.72;;;;;;;2.55;68.89;98937.19;5008480;28;20014;-71
2021/01/19 09:19:07;;;;;;;6.43;2.50;;;;;;;2.40;68.78;98934.16;5012874;28;20484;-70
2021/01/19 09:21:33;;;;;;;5.53;2.90;;;;;;;2.52;69.15;98924.16;5015255;28;20025;-68
2021/01/19 09:23:59;;;;;;;10.30;2.45;;;;;;;2.33;69.51;98915.25;5001052;28;20026;-74
2021/01/19 09:26:25;;;;;;;6.03;2.35;;;;;;;2.57;69.57;98911.19;5010134;28;20449;-72
2021/01/19 09:28:51;;;;;;;4.70;2.15;;;;;;;2.27;69.43;98904.31;5010512;28;20034;-76
2021/01/19 09:31:24;;;;;;;8.65;2.45;;;;;;;2.39;69.95;98908.47;5027535;28;20025;-72
2021/01/19 09:33:52;;;;;;;4.53;1.90;;;;;;;2.21;70.06;98905.75;5016217;28;20365;-75
2021/01/19 09:36:18;;;;;;;8.52;2.10;;;;;;;2.03;70.32;98891.50;5010559;28;20110;-76
2021/01/19 09:38:46;;;;;;;7.47;2.67;;;;;;;2.11;69.98;98904.94;5030875;28;20030;-76
2021/01/19 09:41:18;;;;;;;8.25;2.58;;;;;;;2.19;70.23;98875.69;5025966;28;20041;-75
2021/01/19 09:43:57;;;;;;;8.40;2.50;;;;;;;2.23;69.38;98892.22;5025464;28;20038;-75
2021/01/19 09:46:24;;;;;;;;;;;;;;;2.18;69.69;98890.88;5030988;28;20056;-74
2021/01/19 09:48:54;;;;;;;8.27;2.22;;;;;;;2.08;70.02;98859.88;5025069;28;19913;-74
2021/01/19 09:51:27;;;;;;;3.88;1.67;;;;;;;2.09;69.80;98873.06;5026570;28;20007;-78
2021/01/19 09:54:00;;;;;;;6.68;1.88;;;;;;;1.98;70.33;98863.41;5020777;28;20015;-80
2021/01/19 09:56:26;;;;;;;5.53;2.17;;;;;;;1.85;70.45;98873.56;5021710;28;20033;-79
2021/01/19 09:59:06;;;;;;;4.80;1.90;;;;;;;1.82;70.53;98865.88;5021589;28;20082;-73
2021/01/19 10:01:32;;;;;;;8.00;2.60;;;;;;;1.73;70.71;98864.94;5023610;28;20026;-69
2021/01/19 10:03:57;;;;;;;8.52;3.08;;;;;;;1.77;70.52;98873.47;5028946;28;20010;-76
2021/01/19 10:06:25;;;;;;;4.30;2.33;;;;;;;1.61;70.27;98834.09;5031379;28;20064;-72
2021/01/19 10:08:56;;;;;;;5.85;1.98;;;;;;;1.81;70.51;98858.88;5034444;28;20026;-79
2021/01/19 10:11:35;;;;;;;3.83;2.35;;;;;;;1.81;70.72;98858.88;5029701;28;20061;-75
2021/01/19 10:14:14;;;;;;;7.20;2.38;;;;;;;1.87;69.74;98852.94;5024473;28;20038;-72
2021/01/19 10:16:50;;;;;;;9.10;2.50;;;;;;;1.66;70.01;98833.66;5019091;28;20038;-77
2021/01/19 10:19:24;;;;;;;4.82;1.88;;;;;;;1.67;70.00;98838.00;5028533;28;20034;-74
2021/01/19 10:21:54;;;;;;;4.80;2.10;;;;;;;1.77;69.92;98856.63;5029969;28;20076;-71
2021/01/19 10:24:19;;;;;;;4.68;2.03;;;;;;;1.60;70.51;98837.75;5028538;28;20062;-73
2021/01/19 10:27:08;;;;;;;5.80;2.13;;;;;;;1.81;70.25;98845.53;5033225;28;20084;-76
2021/01/19 10:29:42;;;;;;;9.55;2.10;;;;;;;1.83;70.18;98835.53;5025847;28;20034;-72
2021/01/19 10:32:16;;;;;;;6.30;2.20;;;;;;;1.80;70.18;98819.81;5024471;28;20507;-71
2021/01/19 10:34:51;;;;;;;7.07;2.55;;;;;;;1.83;70.01;98808.03;5014449;28;20029;-72
2021/01/19 10:37:17;;;;;;;6.55;2.50;;;;;;;1.84;69.80;98801.72;5015061;28;20026;-73
2021/01/19 10:39:56;;;;;;;8.88;2.10;;;;;;;1.90;69.79;98796.63;5014668;28;20102;-70
2021/01/19 10:42:25;;;;;;;9.18;3.58;;;;;;;1.79;70.15;98780.81;4996384;28;20555;-70
2021/01/19 10:45:02;;;;;;;7.15;2.63;;;;;;;1.61;70.71;98779.91;5012614;28;20111;-68
2021/01/19 10:47:38;;;;;;;6.28;2.20;;;;;;;1.43;71.51;98762.00;5010078;28;20399;-69
2021/01/19 10:50:17;;;;;;;3.88;1.80;;;;;;;1.48;72.08;98759.75;5012305;28;20061;-72
2021/01/19 10:52:53;;;;;;;4.03;2.20;;;;;;;1.63;72.53;98757.44;5005428;28;20045;-68
2021/01/19 10:55:21;;;;;;;6.40;2.10;;;;;;;1.68;72.59;98757.00;5008550;28;20440;-71
2021/01/19 10:57:47;;;;;;;5.85;2.10;;;;;;;1.64;72.13;98750.28;5007920;28;20036;-70
2021/01/19 11:00:13;;;;;;;6.78;2.15;;;;;;;1.60;72.38;98714.22;5009426;28;20112;-71
2021/01/19 11:02:38;;;;;;;7.35;2.38;;;;;;;1.63;72.87;98724.63;5012538;28;20022;-74
2021/01/19 11:05:04;;;;;;;4.28;1.92;;;;;;;1.84;72.90;98733.19;5006936;28;20030;-74
2021/01/19 11:07:29;;;;;;;8.05;2.47;;;;;;;1.69;72.87;98713.34;5003262;28;20038;-73
2021/01/19 11:09:55;;;;;;;6.78;2.45;;;;;;;1.83;72.10;98722.66;5015809;28;20032;-74
2021/01/19 11:12:20;;;;;;;10.73;2.45;;;;;;;1.82;72.42;98727.16;5015099;28;20025;-77
2021/01/19 11:14:45;;;;;;;4.03;2.42;;;;;;;2.02;72.14;98727.03;5014919;28;20018;-78
2021/01/19 11:17:10;;;;;;;7.40;2.92;;;;;;;2.04;71.56;98709.03;5014656;28;20017;-75
2021/01/19 11:19:36;;;;;;;5.45;2.17;;;;;;;1.92;71.39;98708.44;5006348;28;20022;-77
2021/01/19 11:22:01;;;;;;;5.97;2.40;;;;;;;1.90;71.84;98715.75;5009520;28;20032;-71
2021/01/19 11:24:26;;;;;;;7.28;2.33;;;;;;;1.94;71.79;98706.47;5015793;28;20471;-71
2021/01/19 11:26:52;;;;;;;6.55;2.47;;;;;;;2.01;72.17;98702.19;4999362;28;20041;-67
2021/01/19 11:29:17;;;;;;;5.50;2.03;;;;;;;2.10;71.75;98706.63;5012200;28;20029;-67
2021/01/19 11:31:42;;;;;;;5.97;2.53;;;;;;;1.98;72.38;98714.00;5022641;28;20049;-68
2021/01/19 11:34:09;;;;;;;6.32;2.90;;;;;;;1.94;72.10;98701.97;5015906;28;20082;-67
2021/01/19 11:36:39;;;;;;;5.78;2.72;;;;;;;2.04;72.01;98696.53;5014427;28;20033;-68
2021/01/19 11:39:07;;;;;;;9.70;2.53;;;;;;;2.10;72.38;98698.63;5004254;28;20026;-67
2021/01/19 11:41:35;;;;;;;6.25;2.72;;;;;;;1.93;72.76;98686.94;5009503;28;20034;-67
2021/01/19 11:44:00;;;;;;;7.45;2.53;;;;;;;1.95;72.44;98686.78;5007395;28;20030;-68
2021/01/19 11:46:27;;;;;;;5.43;2.28;;;;;;;2.05;72.21;98665.38;5003200;28;20032;-67
2021/01/19 11:48:55;;;;;;;5.88;2.50;;;;;;;2.16;71.91;98673.16;5007433;28;20112;-67
2021/01/19 11:51:23;;;;;;;4.90;2.75;;;;;;;2.16;72.06;98663.31;5011714;28;20034;-72
2021/01/19 11:53:50;;;;;;;5.50;2.25;;;;;;;2.36;71.40;98682.66;5024743;28;20041;-71